createdAt,value
2023-08-12T00:00:20.522Z,100176.63
2023-08-12T00:02:48.470Z,100173.09
2023-08-12T00:05:15.334Z,100172.25
2023-08-12T00:07:44.916Z,100165.38
2023-08-12T00:10:12.890Z,100161.00
2023-08-12T00:12:39.955Z,100161.22
2023-08-12T00:15:09.172Z,100150.59
2023-08-12T00:17:38.300Z,100150.38
2023-08-12T00:20:12.382Z,100151.19
2023-08-12T00:22:39.993Z,100144.13
2023-08-12T00:25:07.496Z,100150.53
2023-08-12T00:27:34.711Z,100140.75
2023-08-12T00:30:02.041Z,100138.25
2023-08-12T00:32:29.520Z,100148.47
2023-08-12T00:34:56.423Z,100135.53
2023-08-12T00:37:23.389Z,100133.25
2023-08-12T00:39:50.222Z,100136.41
2023-08-12T00:42:17.283Z,100122.66
2023-08-12T00:44:44.085Z,100129.72
2023-08-12T00:47:11.259Z,100127.84
2023-08-12T00:49:41.124Z,100126.59
2023-08-12T00:52:08.014Z,100127.44
2023-08-12T00:54:35.030Z,100132.84
2023-08-12T00:57:02.112Z,100130.56
2023-08-12T00:59:29.306Z,100128.03
2023-08-12T01:01:56.210Z,100129.69
2023-08-12T01:04:23.032Z,100132.41
2023-08-12T01:06:51.400Z,100128.88
2023-08-12T01:09:18.280Z,100122.41
2023-08-12T01:11:51.099Z,100122.00
2023-08-12T01:14:24.888Z,100117.94
2023-08-12T01:16:56.309Z,100121.13
2023-08-12T01:19:35.193Z,100114.03
2023-08-12T01:22:03.765Z,100101.56
2023-08-12T01:24:46.010Z,100104.84
2023-08-12T01:27:14.339Z,100106.34
2023-08-12T01:29:46.204Z,100109.03
2023-08-12T01:32:26.244Z,100087.38
2023-08-12T01:35:31.391Z,100087.81
2023-08-12T01:37:59.164Z,100092.81
2023-08-12T01:40:26.630Z,100087.81
2023-08-12T01:42:53.740Z,100094.06
2023-08-12T01:45:20.692Z,100089.06
2023-08-12T01:47:47.689Z,100089.06
2023-08-12T01:50:14.591Z,100089.06
2023-08-12T01:52:41.825Z,100095.50
2023-08-12T01:55:09.184Z,100100.06
2023-08-12T01:57:36.049Z,100096.72
2023-08-12T02:00:05.246Z,100093.19
2023-08-12T02:02:44.026Z,100103.00
2023-08-12T02:05:11.160Z,100095.06
2023-08-12T02:07:38.115Z,100106.31
2023-08-12T02:10:05.289Z,100107.16
2023-08-12T02:12:32.720Z,100104.66
2023-08-12T02:14:59.636Z,100104.84
2023-08-12T02:17:26.475Z,100098.59
2023-08-12T02:19:53.271Z,100095.91
2023-08-12T02:22:20.080Z,100097.78
2023-08-12T02:24:47.532Z,100089.66
2023-08-12T02:27:14.884Z,100091.97
2023-08-12T02:29:41.648Z,100094.44
2023-08-12T02:32:08.357Z,100095.06
2023-08-12T02:34:35.251Z,100087.59
2023-08-12T02:37:02.002Z,100077.81
2023-08-12T02:39:30.650Z,100080.50
2023-08-12T02:41:57.356Z,100075.97
2023-08-12T02:44:24.220Z,100077.81
2023-08-12T02:46:51.023Z,100068.03
2023-08-12T02:49:17.879Z,100077.41
2023-08-12T02:51:44.650Z,100071.34
2023-08-12T02:54:11.422Z,100078.44
2023-08-12T02:56:38.244Z,100072.41
2023-08-12T02:59:05.348Z,100072.19
2023-08-12T03:01:32.236Z,100067.19
2023-08-12T03:03:59.050Z,100073.22
2023-08-12T03:06:26.014Z,100067.19
2023-08-12T03:08:52.997Z,100068.88
2023-08-12T03:11:20.427Z,100069.88
2023-08-12T03:13:47.486Z,100068.22
2023-08-12T03:16:15.508Z,100064.88
2023-08-12T03:18:44.941Z,100069.03
2023-08-12T03:21:12.100Z,100061.78
2023-08-12T03:23:40.292Z,100067.38
2023-08-12T03:26:09.296Z,100066.31
2023-08-12T03:28:36.698Z,100060.31
2023-08-12T03:31:03.904Z,100065.50
2023-08-12T03:33:34.765Z,100063.84
2023-08-12T03:36:02.409Z,100064.84
2023-08-12T03:38:29.274Z,100060.50
2023-08-12T03:40:56.168Z,100059.44
2023-08-12T03:43:23.206Z,100065.50
2023-08-12T03:45:50.671Z,100066.94
2023-08-12T03:48:20.092Z,100064.84
2023-08-12T03:50:48.525Z,100067.78
2023-08-12T03:53:15.363Z,100058.22
2023-08-12T03:55:43.025Z,100064.44
2023-08-12T03:58:10.469Z,100057.56
2023-08-12T04:00:41.980Z,100060.91
2023-08-12T04:03:09.062Z,100059.84
2023-08-12T04:05:36.007Z,100063.38
2023-08-12T04:08:03.538Z,100072.13
2023-08-12T04:10:31.266Z,100066.94
2023-08-12T04:12:58.015Z,100072.72
2023-08-12T04:15:24.831Z,100065.88
2023-08-12T04:17:52.926Z,100080.66
2023-08-12T04:20:19.892Z,100073.97
2023-08-12T04:22:49.871Z,100072.94
2023-08-12T04:25:17.269Z,100064.22
2023-08-12T04:27:44.268Z,100073.78
2023-08-12T04:30:11.442Z,100069.19
2023-08-12T04:32:38.752Z,100070.84
2023-08-12T04:35:09.123Z,100072.31
2023-08-12T04:37:37.676Z,100069.63
2023-08-12T04:40:06.203Z,100061.91
2023-08-12T04:42:33.034Z,100065.03
2023-08-12T04:45:00.029Z,100058.16
2023-08-12T04:47:30.441Z,100061.50
2023-08-12T04:49:57.523Z,100059.63
2023-08-12T04:52:25.499Z,100054.63
2023-08-12T04:54:55.717Z,100054.63
2023-08-12T04:57:24.362Z,100044.66
2023-08-12T04:59:51.369Z,100040.72
2023-08-12T05:02:19.848Z,100038.66
2023-08-12T05:04:51.062Z,100046.75
2023-08-12T05:07:18.469Z,100056.53
2023-08-12T05:09:45.440Z,100058.84
2023-08-12T05:12:14.710Z,100046.34
2023-08-12T05:14:42.085Z,100048.88
2023-08-12T05:17:09.837Z,100043.47
2023-08-12T05:19:37.673Z,100054.91
2023-08-12T05:22:04.714Z,100049.50
2023-08-12T05:24:31.618Z,100058.22
2023-08-12T05:26:58.361Z,100055.50
2023-08-12T05:29:25.131Z,100050.97
2023-08-12T05:31:51.882Z,100043.88
2023-08-12T05:34:18.714Z,100052.63
2023-08-12T05:36:45.509Z,100051.78
2023-08-12T05:39:12.320Z,100057.19
2023-08-12T05:41:39.405Z,100052.63
2023-08-12T05:44:06.648Z,100048.50
2023-08-12T05:46:33.472Z,100053.66
2023-08-12T05:49:00.425Z,100056.38
2023-08-12T05:51:30.181Z,100053.66
2023-08-12T05:53:57.746Z,100057.00
2023-08-12T05:56:24.471Z,100063.88
2023-08-12T05:58:51.219Z,100056.41
2023-08-12T06:01:19.410Z,100061.59
2023-08-12T06:03:46.245Z,100048.28
2023-08-12T06:06:13.107Z,100049.13
2023-08-12T06:08:39.812Z,100055.16
2023-08-12T06:11:06.592Z,100057.44
2023-08-12T06:13:33.346Z,100063.69
2023-08-12T06:16:00.470Z,100056.59
2023-08-12T06:18:27.392Z,100049.53
2023-08-12T06:20:54.124Z,100054.13
2023-08-12T06:23:21.222Z,100060.53
2023-08-12T06:25:48.032Z,100067.41
2023-08-12T06:28:14.901Z,100058.06
2023-08-12T06:30:41.661Z,100068.06
2023-08-12T06:33:08.450Z,100062.91
2023-08-12T06:35:35.474Z,100064.56
2023-08-12T06:38:02.214Z,100056.25
2023-08-12T06:40:29.023Z,100056.91
2023-08-12T06:42:55.791Z,100066.88
2023-08-12T06:45:22.498Z,100061.25
2023-08-12T06:47:49.222Z,100060.25
2023-08-12T06:50:16.011Z,100064.59
2023-08-12T06:52:42.778Z,100055.88
2023-08-12T06:55:10.366Z,100056.09
2023-08-12T06:57:37.059Z,100068.19
2023-08-12T07:00:04.586Z,100056.97
2023-08-12T07:02:31.456Z,100044.69
2023-08-12T07:04:58.244Z,100058.00
2023-08-12T07:07:25.032Z,100057.78
2023-08-12T07:09:51.775Z,100052.38
2023-08-12T07:12:18.574Z,100048.63
2023-08-12T07:14:45.288Z,100046.34
2023-08-12T07:17:12.091Z,100049.88
2023-08-12T07:19:39.084Z,100049.03
2023-08-12T07:22:05.833Z,100043.00
2023-08-12T07:24:32.621Z,100045.09
2023-08-12T07:26:59.535Z,100040.94
2023-08-12T07:29:26.309Z,100038.84
2023-08-12T07:31:53.597Z,100042.41
2023-08-12T07:34:20.317Z,100046.13
2023-08-12T07:36:47.241Z,100039.69
2023-08-12T07:39:14.115Z,100045.69
2023-08-12T07:41:40.970Z,100053.63
2023-08-12T07:44:07.759Z,100060.31
2023-08-12T07:46:34.556Z,100058.63
2023-08-12T07:49:01.442Z,100060.31
2023-08-12T07:51:28.320Z,100048.22
2023-08-12T07:53:55.077Z,100051.75
2023-08-12T07:56:22.113Z,100057.16
2023-08-12T07:58:49.007Z,100057.59
2023-08-12T08:01:15.909Z,100056.09
2023-08-12T08:03:42.745Z,100052.56
2023-08-12T08:06:09.504Z,100056.75
2023-08-12T08:08:36.330Z,100062.13
2023-08-12T08:11:03.137Z,100059.03
2023-08-12T08:13:29.911Z,100044.66
2023-08-12T08:15:56.829Z,100050.47
2023-08-12T08:18:24.338Z,100053.38
2023-08-12T08:20:51.725Z,100048.81
2023-08-12T08:23:18.673Z,100048.16
2023-08-12T08:25:45.471Z,100036.91
2023-08-12T08:28:12.541Z,100044.84
2023-08-12T08:30:39.492Z,100029.00
2023-08-12T08:33:06.763Z,100031.06
2023-08-12T08:35:33.656Z,100035.84
2023-08-12T08:38:00.499Z,100029.81
2023-08-12T08:40:28.018Z,100029.38
2023-08-12T08:42:55.138Z,100025.59
2023-08-12T08:45:23.822Z,100033.91
2023-08-12T08:47:52.716Z,100021.19
2023-08-12T08:50:20.268Z,100022.00
2023-08-12T08:52:47.411Z,100023.25
2023-08-12T08:55:15.061Z,100026.78
2023-08-12T08:57:47.655Z,100028.22
2023-08-12T09:00:17.893Z,100032.38
2023-08-12T09:02:47.260Z,100021.34
2023-08-12T09:05:15.986Z,100021.53
2023-08-12T09:07:45.032Z,100021.53
2023-08-12T09:10:15.000Z,100029.00
2023-08-12T09:12:43.676Z,100033.38
2023-08-12T09:15:11.063Z,100033.56
2023-08-12T09:17:38.652Z,100040.44
2023-08-12T09:20:13.146Z,100036.47
2023-08-12T09:22:44.865Z,100030.59
2023-08-12T09:25:12.221Z,100019.75
2023-08-12T09:27:39.601Z,100028.50
2023-08-12T09:30:07.057Z,100030.97
2023-08-12T09:32:35.762Z,100026.78
2023-08-12T09:35:07.086Z,100024.69
2023-08-12T09:37:34.168Z,100023.44
2023-08-12T09:40:01.981Z,100021.72
2023-08-12T09:42:29.495Z,100014.19
2023-08-12T09:44:57.790Z,100010.38
2023-08-12T09:47:26.550Z,100007.44
2023-08-12T09:49:53.409Z,99994.94
2023-08-12T09:52:20.214Z,99998.63
2023-08-12T09:54:47.004Z,100001.13
2023-08-12T09:57:15.544Z,99994.03
2023-08-12T09:59:42.687Z,100006.13
2023-08-12T10:02:14.570Z,100000.06
2023-08-12T10:04:43.459Z,99999.63
2023-08-12T10:07:14.155Z,99991.91
2023-08-12T10:09:41.396Z,99988.53
2023-08-12T10:12:08.793Z,99990.53
2023-08-12T10:14:35.785Z,99987.41
2023-08-12T10:17:06.117Z,99981.06
2023-08-12T10:19:33.592Z,99977.94
2023-08-12T10:22:00.544Z,99962.28
2023-08-12T10:24:28.061Z,99964.53
2023-08-12T10:26:55.260Z,99953.00
2023-08-12T10:29:24.117Z,99965.09
2023-08-12T10:31:51.247Z,99956.50
2023-08-12T10:34:25.285Z,99957.09
2023-08-12T10:37:02.913Z,99961.63
2023-08-12T10:39:32.801Z,99962.00
2023-08-12T10:42:00.245Z,99960.94
2023-08-12T10:44:52.045Z,99964.78
2023-08-12T10:47:18.943Z,99965.56
2023-08-12T10:49:49.923Z,99964.94
2023-08-12T10:52:30.187Z,99974.06
2023-08-12T10:55:20.478Z,99961.31
2023-08-12T10:57:47.386Z,99955.97
2023-08-12T11:00:19.316Z,99959.50
2023-08-12T11:02:46.899Z,99955.91
2023-08-12T11:05:15.499Z,99957.47
2023-08-12T11:07:53.297Z,99956.63
2023-08-12T11:10:25.571Z,99952.63
2023-08-12T11:12:52.491Z,99950.91
2023-08-12T11:15:39.939Z,99948.19
2023-08-12T11:18:11.416Z,99935.13
2023-08-12T11:20:38.605Z,99940.50
2023-08-12T11:23:06.473Z,99937.09
2023-08-12T11:25:34.405Z,99937.22
2023-08-12T11:28:01.579Z,99947.38
2023-08-12T11:30:31.953Z,99945.53
2023-08-12T11:33:00.288Z,99951.16
2023-08-12T11:35:27.311Z,99952.47
2023-08-12T11:37:56.675Z,99957.53
2023-08-12T11:40:25.356Z,99963.41
2023-08-12T11:42:52.801Z,99962.44
2023-08-12T11:45:24.928Z,99969.63
2023-08-12T11:47:55.959Z,99976.34
2023-08-12T11:50:27.768Z,99980.13
2023-08-12T11:52:55.517Z,99970.53
2023-08-12T11:55:23.102Z,99968.50
2023-08-12T11:57:51.532Z,99974.81
2023-08-12T12:00:19.997Z,99979.88
2023-08-12T12:02:54.332Z,99996.03
2023-08-12T12:05:35.749Z,99999.78
2023-08-12T12:08:02.658Z,100014.75
2023-08-12T12:10:34.453Z,100030.59
2023-08-12T12:13:04.073Z,100025.22
2023-08-12T12:15:31.977Z,100024.63
2023-08-12T12:17:59.532Z,100023.41
2023-08-12T12:20:28.143Z,100028.00
2023-08-12T12:22:56.122Z,100032.84
2023-08-12T12:25:23.318Z,100045.97
2023-08-12T12:27:50.151Z,100041.59
2023-08-12T12:30:17.898Z,100040.31
2023-08-12T12:32:46.308Z,100031.56
2023-08-12T12:35:13.422Z,100021.97
2023-08-12T12:37:40.538Z,100022.78
2023-08-12T12:40:08.374Z,100029.50
2023-08-12T12:42:35.224Z,100018.47
2023-08-12T12:45:02.068Z,100021.44
2023-08-12T12:47:29.014Z,100035.84
2023-08-12T12:49:55.846Z,100023.38
2023-08-12T12:52:22.617Z,100025.44
2023-08-12T12:54:49.477Z,100020.59
2023-08-12T12:57:16.744Z,100018.47
2023-08-12T12:59:43.505Z,100022.03
2023-08-12T13:02:10.810Z,100023.25
2023-08-12T13:04:37.791Z,100028.47
2023-08-12T13:07:04.561Z,100034.94
2023-08-12T13:09:32.155Z,100040.78
2023-08-12T13:11:59.417Z,100042.63
2023-08-12T13:14:26.206Z,100027.03
2023-08-12T13:16:53.052Z,100041.03
2023-08-12T13:19:20.007Z,100045.63
2023-08-12T13:21:46.918Z,100036.66
2023-08-12T13:24:13.800Z,100044.19
2023-08-12T13:26:40.614Z,100052.78
2023-08-12T13:29:07.467Z,100052.59
2023-08-12T13:31:34.460Z,100050.53
2023-08-12T13:34:01.633Z,100055.50
2023-08-12T13:36:28.486Z,100063.66
2023-08-12T13:38:55.379Z,100054.44
2023-08-12T13:41:22.274Z,100043.81
2023-08-12T13:43:49.095Z,100048.81
2023-08-12T13:46:15.989Z,100043.75
2023-08-12T13:48:43.334Z,100029.13
2023-08-12T13:51:10.488Z,100033.03
2023-08-12T13:53:37.276Z,100032.38
2023-08-12T13:56:04.072Z,100031.09
2023-08-12T13:58:30.797Z,100039.03
2023-08-12T14:00:57.617Z,100027.78
2023-08-12T14:03:24.463Z,100020.03
2023-08-12T14:05:51.485Z,100018.75
2023-08-12T14:08:18.334Z,100019.56
2023-08-12T14:10:47.061Z,100009.06
2023-08-12T14:13:13.854Z,100015.56
2023-08-12T14:15:41.840Z,100021.22
2023-08-12T14:18:09.372Z,100011.06
2023-08-12T14:20:36.495Z,100001.47
2023-08-12T14:23:03.432Z,99993.16
2023-08-12T14:25:31.028Z,99989.00
2023-08-12T14:27:57.817Z,99985.28
2023-08-12T14:30:26.188Z,99990.72
2023-08-12T14:32:53.608Z,99992.00
2023-08-12T14:35:25.535Z,99981.84
2023-08-12T14:37:52.215Z,99987.25
2023-08-12T14:40:19.114Z,99983.69
2023-08-12T14:42:45.982Z,99973.28
2023-08-12T14:45:12.875Z,99974.97
2023-08-12T14:47:39.924Z,99970.81
2023-08-12T14:50:07.309Z,99969.59
2023-08-12T14:52:34.284Z,99974.63
2023-08-12T14:55:01.137Z,99991.13
2023-08-12T14:57:27.979Z,100004.28
2023-08-12T14:59:54.976Z,100004.53
2023-08-12T15:02:23.790Z,100003.69
2023-08-12T15:04:51.027Z,100005.19
2023-08-12T15:07:19.639Z,100007.91
2023-08-12T15:09:46.873Z,100017.09
2023-08-12T15:12:13.681Z,100014.81
2023-08-12T15:14:40.906Z,100009.38
2023-08-12T15:21:38.867Z,100043.03
2023-08-12T15:24:05.868Z,100018.88
2023-08-12T15:27:54.771Z,100004.53
2023-08-12T15:30:12.260Z,99998.75
2023-08-12T15:32:41.500Z,99999.81
2023-08-12T15:35:10.709Z,100006.06
2023-08-12T15:37:37.465Z,99990.81
2023-08-12T15:40:04.708Z,99988.34
2023-08-12T15:42:33.783Z,99986.91
2023-08-12T15:45:00.622Z,99977.94
2023-08-12T15:47:27.320Z,99990.88
2023-08-12T15:49:54.272Z,99993.34
2023-08-12T15:52:21.397Z,99994.41
2023-08-12T15:54:48.380Z,100005.06
2023-08-12T15:57:15.333Z,99997.13
2023-08-12T15:59:42.279Z,100015.28
2023-08-12T16:02:10.519Z,100023.19
2023-08-12T16:04:37.592Z,100035.72
2023-08-12T16:07:04.398Z,100047.19
2023-08-12T16:09:31.640Z,100053.66
2023-08-12T16:11:58.444Z,100048.84
2023-08-12T16:14:25.285Z,100050.50
2023-08-12T16:16:52.338Z,100056.34
2023-08-12T16:19:19.325Z,100057.19
2023-08-12T16:21:46.182Z,100060.13
2023-08-12T16:24:12.921Z,100060.13
2023-08-12T16:26:39.781Z,100060.13
2023-08-12T16:29:06.559Z,100050.75
2023-08-12T16:31:33.434Z,100046.41
2023-08-12T16:34:00.603Z,100045.34
2023-08-12T16:36:27.607Z,100046.16
2023-08-12T16:38:54.419Z,100026.34
2023-08-12T16:41:21.417Z,100017.59
2023-08-12T16:43:48.162Z,100025.31
2023-08-12T16:46:14.960Z,100024.25
2023-08-12T16:48:41.674Z,100032.19
2023-08-12T16:51:08.642Z,100026.75
2023-08-12T16:53:35.424Z,100028.63
2023-08-12T16:56:02.186Z,100039.47
2023-08-12T16:58:28.883Z,100028.63
2023-08-12T17:00:55.626Z,100023.44
2023-08-12T17:03:22.554Z,100025.06
2023-08-12T17:05:49.310Z,100028.19
2023-08-12T17:08:16.301Z,100028.78
2023-08-12T17:10:43.110Z,100023.97
2023-08-12T17:13:09.843Z,100030.84
2023-08-12T17:15:36.921Z,100029.13
2023-08-12T17:18:03.932Z,100029.75
2023-08-12T17:20:31.069Z,100026.84
2023-08-12T17:22:57.924Z,100033.25
2023-08-12T17:25:24.829Z,100027.22
2023-08-12T17:27:51.887Z,100026.34
2023-08-12T17:30:19.398Z,100025.28
2023-08-12T17:32:46.239Z,100025.06
2023-08-12T17:35:13.042Z,100026.50
2023-08-12T17:37:40.149Z,100024.63
2023-08-12T17:40:07.879Z,100027.56
2023-08-12T17:42:34.926Z,100023.19
2023-08-12T17:45:01.685Z,100025.28
2023-08-12T17:47:28.615Z,100030.91
2023-08-12T17:49:55.590Z,100024.91
2023-08-12T17:52:22.355Z,100027.00
2023-08-12T17:54:49.340Z,100028.28
2023-08-12T17:57:16.046Z,100042.03
2023-08-12T17:59:42.817Z,100046.84
2023-08-12T18:02:09.628Z,100045.41
2023-08-12T18:04:36.669Z,100047.94
2023-08-12T18:07:04.608Z,100050.91
2023-08-12T18:09:31.326Z,100055.72
2023-08-12T18:11:58.240Z,100060.75
2023-08-12T18:14:25.182Z,100065.31
2023-08-12T18:16:52.114Z,100063.88
2023-08-12T18:19:18.934Z,100063.50
2023-08-12T18:21:45.731Z,100060.16
2023-08-12T18:24:12.640Z,100058.50
2023-08-12T18:26:39.383Z,100059.78
2023-08-12T18:29:06.163Z,100061.44
2023-08-12T18:31:33.079Z,100071.66
2023-08-12T18:33:59.972Z,100072.09
2023-08-12T18:36:26.929Z,100063.56
2023-08-12T18:38:53.683Z,100068.16
2023-08-12T18:41:20.495Z,100074.88
2023-08-12T18:43:47.283Z,100075.28
2023-08-12T18:46:14.278Z,100068.19
2023-08-12T18:48:41.362Z,100072.34
2023-08-12T18:51:08.114Z,100071.75
2023-08-12T18:53:34.903Z,100087.16
2023-08-12T18:56:01.700Z,100090.31
2023-08-12T18:58:29.165Z,100093.84
2023-08-12T19:00:56.172Z,100093.25
2023-08-12T19:03:55.512Z,100097.81
2023-08-12T19:06:22.372Z,100105.56
2023-08-12T19:08:49.316Z,100102.84
2023-08-12T19:11:21.633Z,100110.56
2023-08-12T19:13:48.969Z,100115.38
2023-08-12T19:16:15.958Z,100127.25
2023-08-12T19:18:42.830Z,100126.63
2023-08-12T19:22:18.654Z,100131.22
2023-08-12T19:24:24.169Z,100118.72
2023-08-12T19:26:50.965Z,100107.47
2023-08-12T19:29:19.093Z,100113.50
2023-08-12T19:31:45.957Z,100120.19
2023-08-12T19:34:12.876Z,100123.53
2023-08-12T19:36:39.783Z,100120.81
2023-08-12T19:39:06.815Z,100117.91
2023-08-12T19:41:33.841Z,100133.13
2023-08-12T19:44:00.685Z,100127.94
2023-08-12T19:46:27.466Z,100121.88
2023-08-12T19:48:55.629Z,100111.25
2023-08-12T19:51:22.608Z,100122.69
2023-08-12T19:53:49.449Z,100123.34
2023-08-12T19:56:16.201Z,100116.06
2023-08-12T19:58:43.345Z,100125.84
2023-08-12T20:01:10.153Z,100128.56
2023-08-12T20:03:37.145Z,100125.44
2023-08-12T20:06:05.324Z,100131.47
2023-08-12T20:08:32.136Z,100130.00
2023-08-12T20:10:59.027Z,100130.25
2023-08-12T20:13:26.081Z,100121.47
2023-08-12T20:15:58.753Z,100118.38
2023-08-12T20:18:25.976Z,100129.44
2023-08-12T20:20:53.818Z,100136.28
2023-08-12T20:23:21.003Z,100143.59
2023-08-12T20:27:28.932Z,100145.66
2023-08-12T20:29:38.884Z,100143.38
2023-08-12T20:32:05.778Z,100153.59
2023-08-12T20:34:32.597Z,100154.66
2023-08-12T20:36:59.403Z,100159.00
2023-08-12T20:39:26.445Z,100150.06
2023-08-12T20:41:53.379Z,100146.53
2023-08-12T20:44:20.156Z,100148.38
2023-08-12T20:46:47.271Z,100150.25
2023-08-12T20:49:14.279Z,100159.63
2023-08-12T20:51:41.031Z,100164.03
2023-08-12T20:54:07.967Z,100166.53
2023-08-12T20:56:34.946Z,100174.44
2023-08-12T20:59:01.673Z,100175.06
2023-08-12T21:01:28.676Z,100181.94
2023-08-12T21:03:55.628Z,100172.56
2023-08-12T21:06:22.510Z,100170.91
2023-08-12T21:08:49.256Z,100175.28
2023-08-12T21:11:16.136Z,100177.38
2023-08-12T21:13:44.048Z,100179.00
2023-08-12T21:16:11.027Z,100179.66
2023-08-12T21:18:37.881Z,100180.88
2023-08-12T21:21:05.830Z,100185.09
2023-08-12T21:23:32.614Z,100177.75
2023-08-12T21:25:59.518Z,100181.09
2023-08-12T21:28:26.319Z,100171.50
2023-08-12T21:30:53.729Z,100185.66
2023-08-12T21:33:20.759Z,100189.41
2023-08-12T21:35:47.710Z,100185.03
2023-08-12T21:38:14.564Z,100190.66
2023-08-12T21:40:41.379Z,100193.16
2023-08-12T21:43:08.181Z,100189.19
2023-08-12T21:45:35.105Z,100199.81
2023-08-12T21:48:01.992Z,100196.28
2023-08-12T21:50:28.774Z,100197.31
2023-08-12T21:52:55.608Z,100189.84
2023-08-12T21:55:22.396Z,100195.84
2023-08-12T21:57:50.078Z,100196.91
2023-08-12T22:00:16.848Z,100181.72
2023-08-12T22:02:44.709Z,100184.63
2023-08-12T22:05:13.130Z,100191.69
2023-08-12T22:07:39.949Z,100188.56
2023-08-12T22:10:07.464Z,100195.88
2023-08-12T22:12:34.306Z,100193.34
2023-08-12T22:15:01.277Z,100188.38
2023-08-12T22:17:29.863Z,100195.44
2023-08-12T22:19:56.727Z,100187.09
2023-08-12T22:22:23.910Z,100192.31
2023-08-12T22:24:51.116Z,100183.56
2023-08-12T22:27:17.888Z,100183.97
2023-08-12T22:29:44.666Z,100184.81
2023-08-12T22:32:11.891Z,100183.97
2023-08-12T22:34:39.042Z,100181.28
2023-08-12T22:37:05.816Z,100186.69
2023-08-12T22:39:32.587Z,100180.44
2023-08-12T22:41:59.341Z,100175.22
2023-08-12T22:44:26.094Z,100183.75
2023-08-12T22:46:52.864Z,100171.66
2023-08-12T22:49:19.674Z,100185.84
2023-08-12T22:51:46.439Z,100178.31
2023-08-12T22:54:13.148Z,100178.56
2023-08-12T22:56:39.903Z,100173.97
2023-08-12T22:59:06.627Z,100169.81
2023-08-12T23:01:33.347Z,100171.44
2023-08-12T23:04:00.087Z,100168.75
2023-08-12T23:06:26.826Z,100168.75
2023-08-12T23:08:53.685Z,100169.38
2023-08-12T23:11:20.443Z,100169.56
2023-08-12T23:13:47.154Z,100161.69
2023-08-12T23:16:13.946Z,100169.56
2023-08-12T23:18:40.723Z,100173.34
2023-08-12T23:21:07.531Z,100164.38
2023-08-12T23:23:34.254Z,100172.09
2023-08-12T23:26:01.045Z,100168.13
2023-08-12T23:28:27.789Z,100172.28
2023-08-12T23:30:54.646Z,100176.44
2023-08-12T23:33:21.436Z,100172.28
2023-08-12T23:35:48.251Z,100169.38
2023-08-12T23:38:15.062Z,100167.28
2023-08-12T23:40:41.843Z,100163.75
2023-08-12T23:43:09.243Z,100171.22
2023-08-12T23:45:37.702Z,100161.47
2023-08-12T23:48:04.851Z,100170.81
2023-08-12T23:50:31.733Z,100164.78
2023-08-12T23:52:58.536Z,100161.66
2023-08-12T23:55:25.657Z,100165.38
2023-08-12T23:57:52.478Z,100160.19
